createdAt,value
2023-05-25T00:00:21.891Z,65.90
2023-05-25T00:02:51.207Z,65.80
2023-05-25T00:05:30.598Z,66.00
2023-05-25T00:08:01.573Z,65.90
2023-05-25T00:10:38.572Z,65.80
2023-05-25T00:13:10.342Z,65.90
2023-05-25T00:15:39.863Z,65.90
2023-05-25T00:18:10.557Z,65.90
2023-05-25T00:20:48.505Z,66.00
2023-05-25T00:23:18.884Z,66.00
2023-05-25T00:25:48.918Z,66.20
2023-05-25T00:28:19.550Z,66.30
2023-05-25T00:30:51.536Z,66.60
2023-05-25T00:33:22.554Z,66.90
2023-05-25T00:35:57.053Z,67.00
2023-05-25T00:38:27.697Z,67.00
2023-05-25T00:43:41.702Z,66.90
2023-05-25T00:46:11.742Z,67.00
2023-05-25T00:48:40.901Z,67.00
2023-05-25T00:51:17.905Z,67.00
2023-05-25T00:53:50.788Z,66.90
2023-05-25T00:56:25.723Z,67.00
2023-05-25T00:58:57.021Z,67.00
2023-05-25T01:01:33.594Z,67.00
2023-05-25T01:04:06.916Z,67.00
2023-05-25T01:06:40.808Z,67.00
2023-05-25T01:09:12.499Z,67.30
2023-05-25T01:11:45.956Z,67.50
2023-05-25T01:14:19.688Z,67.60
2023-05-25T01:16:50.035Z,67.60
2023-05-25T01:22:09.461Z,67.80
2023-05-25T01:24:41.980Z,68.00
2023-05-25T01:27:15.468Z,68.20
2023-05-25T01:29:49.392Z,68.20
2023-05-25T01:32:27.214Z,68.20
2023-05-25T01:35:01.668Z,68.10
2023-05-25T01:37:35.212Z,68.30
2023-05-25T01:40:06.078Z,68.50
2023-05-25T01:42:39.566Z,68.60
2023-05-25T01:48:05.855Z,68.50
2023-05-25T01:50:45.235Z,68.60
2023-05-25T01:53:34.152Z,68.70
2023-05-25T01:56:09.696Z,68.80
2023-05-25T01:58:58.744Z,68.80
2023-05-25T02:01:29.362Z,68.90
2023-05-25T02:04:16.250Z,69.00
2023-05-25T02:06:46.543Z,68.90
2023-05-25T02:12:03.338Z,68.80
2023-05-25T02:14:31.786Z,68.80
2023-05-25T02:17:02.482Z,68.70
2023-05-25T02:19:34.224Z,68.50
2023-05-25T02:22:04.781Z,68.40
2023-05-25T02:24:35.615Z,68.40
2023-05-25T02:27:12.822Z,68.40
2023-05-25T02:29:43.783Z,68.40
2023-05-25T02:32:13.141Z,68.40
2023-05-25T02:34:43.774Z,68.40
2023-05-25T02:37:16.522Z,68.50
2023-05-25T02:39:48.299Z,68.40
2023-05-25T02:42:18.470Z,68.50
2023-05-25T02:44:49.545Z,68.40
2023-05-25T02:47:18.513Z,68.30
2023-05-25T02:49:52.273Z,68.40
2023-05-25T02:52:23.119Z,68.40
2023-05-25T02:57:42.133Z,68.30
2023-05-25T03:00:15.320Z,68.30
2023-05-25T03:02:46.830Z,68.20
2023-05-25T03:05:18.089Z,68.10
2023-05-25T03:08:05.161Z,68.40
2023-05-25T03:10:40.795Z,68.30
2023-05-25T03:13:11.226Z,68.10
2023-05-25T03:15:40.344Z,68.20
2023-05-25T03:18:11.950Z,68.20
2023-05-25T03:20:42.053Z,68.10
2023-05-25T03:23:10.722Z,68.10
2023-05-25T03:25:42.964Z,68.00
2023-05-25T03:28:27.700Z,67.90
2023-05-25T03:30:57.753Z,68.00
2023-05-25T03:33:35.495Z,67.90
2023-05-25T03:36:10.044Z,67.60
2023-05-25T03:38:40.385Z,67.40
2023-05-25T03:41:09.901Z,67.30
2023-05-25T03:43:41.784Z,67.20
2023-05-25T03:46:11.818Z,67.20
2023-05-25T03:48:40.172Z,67.00
2023-05-25T03:51:09.823Z,67.00
2023-05-25T03:53:38.180Z,66.90
2023-05-25T03:56:10.077Z,66.70
2023-05-25T03:58:53.450Z,66.60
2023-05-25T04:01:38.170Z,66.70
2023-05-25T04:04:16.692Z,66.80
2023-05-25T04:07:02.660Z,66.60
2023-05-25T04:09:32.038Z,66.50
2023-05-25T04:12:02.614Z,66.40
2023-05-25T04:14:41.051Z,66.20
2023-05-25T04:17:22.160Z,66.30
2023-05-25T04:19:52.476Z,66.20
2023-05-25T04:22:26.018Z,66.20
2023-05-25T04:24:57.378Z,66.20
2023-05-25T04:27:30.881Z,66.10
2023-05-25T04:30:36.116Z,66.20
2023-05-25T04:33:05.864Z,66.10
2023-05-25T04:35:38.666Z,66.20
2023-05-25T04:38:08.225Z,66.20
2023-05-25T04:40:54.086Z,66.20
2023-05-25T04:43:24.293Z,66.00
2023-05-25T04:46:02.050Z,65.90
2023-05-25T04:48:46.944Z,65.80
2023-05-25T04:51:19.086Z,65.80
2023-05-25T04:53:51.686Z,65.70
2023-05-25T04:56:28.525Z,65.40
2023-05-25T05:01:44.794Z,65.00
2023-05-25T05:04:19.995Z,64.50
2023-05-25T05:06:48.851Z,64.10
2023-05-25T05:09:27.611Z,63.90
2023-05-25T05:11:58.189Z,63.40
2023-05-25T05:14:30.015Z,62.90
2023-05-25T05:17:03.569Z,62.90
2023-05-25T05:19:36.445Z,62.90
2023-05-25T05:22:09.324Z,62.30
2023-05-25T05:24:38.879Z,62.70
2023-05-25T05:27:23.426Z,62.50
2023-05-25T05:29:55.761Z,62.50
2023-05-25T05:32:58.902Z,62.00
2023-05-25T05:35:40.525Z,62.50
2023-05-25T05:38:12.596Z,62.60
2023-05-25T05:40:57.498Z,62.80
2023-05-25T05:43:29.711Z,62.30
2023-05-25T05:46:01.507Z,62.70
2023-05-25T05:48:33.750Z,62.90
2023-05-25T05:51:09.984Z,62.70
2023-05-25T05:53:45.389Z,62.80
2023-05-25T05:56:22.234Z,62.90
2023-05-25T05:58:53.633Z,62.40
2023-05-25T06:01:31.029Z,62.80
2023-05-25T06:04:18.499Z,63.00
2023-05-25T06:06:56.768Z,62.20
2023-05-25T06:09:27.618Z,62.10
2023-05-25T06:12:12.609Z,62.00
2023-05-25T06:14:47.601Z,61.80
2023-05-25T06:17:18.683Z,61.80
2023-05-25T06:19:58.879Z,61.30
2023-05-25T06:22:29.908Z,61.10
2023-05-25T06:25:00.817Z,61.00
2023-05-25T06:27:30.617Z,61.00
2023-05-25T06:29:59.019Z,60.70
2023-05-25T06:32:37.490Z,60.40
2023-05-25T06:35:15.442Z,60.20
2023-05-25T06:37:46.235Z,59.90
2023-05-25T06:40:31.837Z,59.80
2023-05-25T06:43:01.322Z,59.40
2023-05-25T06:45:29.566Z,59.30
2023-05-25T06:53:44.502Z,59.20
2023-05-25T06:56:13.213Z,59.30
2023-05-25T06:58:45.967Z,59.30
2023-05-25T07:01:16.647Z,59.40
2023-05-25T07:03:55.307Z,59.50
2023-05-25T07:06:54.271Z,59.20
2023-05-25T07:09:22.755Z,58.60
2023-05-25T07:11:51.941Z,58.30
2023-05-25T07:14:23.438Z,58.60
2023-05-25T07:17:05.014Z,59.00
2023-05-25T07:19:35.800Z,58.60
2023-05-25T07:22:34.037Z,58.50
2023-05-25T07:25:11.465Z,58.60
2023-05-25T07:27:42.808Z,58.80
2023-05-25T07:30:31.017Z,58.80
2023-05-25T07:32:59.479Z,58.30
2023-05-25T07:35:27.941Z,58.50
2023-05-25T07:38:01.811Z,58.10
2023-05-25T07:40:30.002Z,58.00
2023-05-25T07:42:58.271Z,58.00
2023-05-25T07:45:26.434Z,57.70
2023-05-25T07:47:54.636Z,57.30
2023-05-25T07:50:23.790Z,57.10
2023-05-25T07:52:52.094Z,56.10
2023-05-25T07:55:21.698Z,56.80
2023-05-25T07:57:49.845Z,56.90
2023-05-25T08:00:19.001Z,56.60
2023-05-25T08:02:47.339Z,56.40
2023-05-25T08:05:15.699Z,55.80
2023-05-25T08:07:44.003Z,56.10
2023-05-25T08:10:12.751Z,56.00
2023-05-25T08:12:47.936Z,56.00
2023-05-25T08:15:18.332Z,55.80
2023-05-25T08:17:46.659Z,55.90
2023-05-25T08:20:16.085Z,55.90
2023-05-25T08:22:45.492Z,55.80
2023-05-25T08:25:15.999Z,55.40
2023-05-25T08:27:47.956Z,55.50
2023-05-25T08:30:16.255Z,55.50
2023-05-25T08:32:45.272Z,54.90
2023-05-25T08:35:14.379Z,54.80
2023-05-25T08:37:43.546Z,55.20
2023-05-25T08:40:16.814Z,55.50
2023-05-25T08:42:47.406Z,55.30
2023-05-25T08:45:30.470Z,55.20
2023-05-25T08:48:05.097Z,55.40
2023-05-25T08:50:34.956Z,55.30
2023-05-25T08:53:06.402Z,55.40
2023-05-25T08:55:38.153Z,55.50
2023-05-25T08:58:14.163Z,55.20
2023-05-25T09:00:48.063Z,55.20
2023-05-25T09:03:19.096Z,55.50
2023-05-25T09:05:48.315Z,55.30
2023-05-25T09:08:18.075Z,55.30
2023-05-25T09:10:46.230Z,55.40
2023-05-25T09:15:47.528Z,55.20
2023-05-25T09:18:15.820Z,55.40
2023-05-25T09:20:46.584Z,55.30
2023-05-25T09:23:15.572Z,54.70
2023-05-25T09:25:44.975Z,54.10
2023-05-25T09:28:26.296Z,54.20
2023-05-25T09:30:57.818Z,54.50
2023-05-25T09:33:26.043Z,54.60
2023-05-25T09:35:54.341Z,54.70
2023-05-25T09:53:09.376Z,53.60
2023-05-25T09:55:52.042Z,53.70
2023-05-25T09:58:25.162Z,54.00
2023-05-25T10:00:55.794Z,53.70
2023-05-25T10:03:24.312Z,53.40
2023-05-25T10:05:55.225Z,53.00
2023-05-25T10:08:28.773Z,52.80
2023-05-25T10:10:58.871Z,53.00
2023-05-25T10:13:30.361Z,52.20
2023-05-25T10:16:00.634Z,52.60
2023-05-25T10:18:34.022Z,53.10
2023-05-25T10:21:05.281Z,52.90
2023-05-25T10:23:42.183Z,52.30
2023-05-25T10:26:14.727Z,52.50
2023-05-25T10:28:45.665Z,52.80
2023-05-25T10:31:14.646Z,52.60
2023-05-25T10:33:47.535Z,52.60
2023-05-25T10:36:20.243Z,52.40
2023-05-25T10:38:52.844Z,52.30
2023-05-25T10:41:21.861Z,52.30
2023-05-25T10:43:50.550Z,52.50
2023-05-25T10:46:19.366Z,52.50
2023-05-25T10:48:49.432Z,52.30
2023-05-25T10:51:20.765Z,52.10
2023-05-25T10:54:01.542Z,51.30
2023-05-25T10:56:29.773Z,51.50
2023-05-25T10:58:58.170Z,51.20
2023-05-25T11:01:27.028Z,50.80
2023-05-25T11:03:57.417Z,51.30
2023-05-25T11:07:08.626Z,50.80
2023-05-25T11:09:44.584Z,50.80
2023-05-25T11:12:23.133Z,51.20
2023-05-25T11:15:11.884Z,50.80
2023-05-25T11:18:02.598Z,50.60
2023-05-25T11:20:32.092Z,50.40
2023-05-25T11:23:00.359Z,50.60
2023-05-25T11:25:40.695Z,50.10
2023-05-25T11:28:12.023Z,50.20
2023-05-25T11:30:42.869Z,49.80
2023-05-25T11:33:11.368Z,50.20
2023-05-25T11:35:39.761Z,49.80
2023-05-25T11:38:08.873Z,49.70
2023-05-25T11:40:40.313Z,50.20
2023-05-25T11:43:16.459Z,50.10
2023-05-25T11:45:44.832Z,49.60
2023-05-25T11:48:16.204Z,49.80
2023-05-25T11:50:44.756Z,49.80
2023-05-25T11:53:13.713Z,49.50
2023-05-25T11:55:52.104Z,49.10
2023-05-25T11:58:22.214Z,49.30
2023-05-25T12:00:50.409Z,49.40
2023-05-25T12:03:31.701Z,48.70
2023-05-25T12:06:00.061Z,48.70
2023-05-25T12:08:34.416Z,48.80
2023-05-25T12:11:04.294Z,48.90
2023-05-25T12:13:32.588Z,48.50
2023-05-25T12:16:01.294Z,48.40
2023-05-25T12:18:29.992Z,48.10
2023-05-25T12:20:58.706Z,48.00
2023-05-25T12:23:27.204Z,47.70
2023-05-25T12:26:12.395Z,47.50
2023-05-25T12:28:40.743Z,47.40
2023-05-25T12:31:24.987Z,47.20
2023-05-25T12:34:10.223Z,47.20
2023-05-25T12:36:42.892Z,47.10
2023-05-25T12:39:12.880Z,47.10
2023-05-25T12:41:52.550Z,46.80
2023-05-25T12:44:25.489Z,46.70
2023-05-25T12:46:55.093Z,46.20
2023-05-25T12:49:28.223Z,46.40
2023-05-25T12:51:56.883Z,46.40
2023-05-25T12:54:44.036Z,45.90
2023-05-25T12:57:15.190Z,46.00
2023-05-25T12:59:44.951Z,45.50
2023-05-25T13:02:13.665Z,46.10
2023-05-25T13:04:44.652Z,45.80
2023-05-25T13:07:13.272Z,46.20
2023-05-25T13:09:41.448Z,45.30
2023-05-25T13:12:09.965Z,45.50
2023-05-25T13:14:39.552Z,45.70
2023-05-25T13:17:07.912Z,45.60
2023-05-25T13:19:36.164Z,45.60
2023-05-25T13:22:04.343Z,44.70
2023-05-25T13:24:32.706Z,45.20
2023-05-25T13:27:01.474Z,44.60
2023-05-25T13:29:29.652Z,44.50
2023-05-25T13:31:59.212Z,44.30
2023-05-25T13:34:28.563Z,44.20
2023-05-25T13:36:56.957Z,43.70
2023-05-25T13:39:25.152Z,43.80
2023-05-25T13:41:53.377Z,43.30
2023-05-25T13:44:21.553Z,43.30
2023-05-25T13:46:49.836Z,43.00
2023-05-25T13:49:19.700Z,42.70
2023-05-25T13:51:48.068Z,42.00
2023-05-25T13:54:16.249Z,42.00
2023-05-25T13:56:44.426Z,41.90
2023-05-25T13:59:13.116Z,42.00
2023-05-25T14:01:41.944Z,41.50
2023-05-25T14:04:10.457Z,41.30
2023-05-25T14:06:40.169Z,41.10
2023-05-25T14:09:09.914Z,41.60
2023-05-25T14:11:38.185Z,40.80
2023-05-25T14:14:13.651Z,40.20
2023-05-25T14:16:42.147Z,40.60
2023-05-25T14:19:10.309Z,40.90
2023-05-25T14:21:39.948Z,40.40
2023-05-25T14:24:08.511Z,40.70
2023-05-25T14:26:37.484Z,40.80
2023-05-25T14:29:05.976Z,40.50
2023-05-25T14:31:34.146Z,40.80
2023-05-25T14:34:02.432Z,39.40
2023-05-25T14:36:30.640Z,39.70
2023-05-25T14:39:00.167Z,40.00
2023-05-25T14:41:28.356Z,40.60
2023-05-25T14:43:56.611Z,40.60
2023-05-25T14:46:24.854Z,40.40
2023-05-25T14:48:52.994Z,39.80
2023-05-25T14:51:21.196Z,39.70
2023-05-25T14:53:50.720Z,40.50
2023-05-25T14:56:21.764Z,40.10
2023-05-25T14:58:49.985Z,39.60
2023-05-25T15:01:18.232Z,39.30
2023-05-25T15:03:46.540Z,39.50
2023-05-25T15:06:14.930Z,40.00
2023-05-25T15:08:43.110Z,39.90
2023-05-25T15:11:11.307Z,39.50
2023-05-25T15:13:42.016Z,39.80
2023-05-25T15:16:12.653Z,39.40
2023-05-25T15:18:41.238Z,39.50
2023-05-25T15:21:09.516Z,39.70
2023-05-25T15:23:37.749Z,40.40
2023-05-25T15:26:07.826Z,40.90
2023-05-25T15:28:36.141Z,41.80
2023-05-25T15:31:06.193Z,42.00
2023-05-25T15:36:05.796Z,42.90
2023-05-25T15:38:34.016Z,42.00
2023-05-25T15:41:02.276Z,41.50
2023-05-25T15:43:30.562Z,41.30
2023-05-25T15:45:58.796Z,41.80
2023-05-25T15:48:28.300Z,42.20
2023-05-25T15:50:56.521Z,42.60
2023-05-25T15:53:27.845Z,43.00
2023-05-25T15:55:55.989Z,43.70
2023-05-25T15:58:24.198Z,44.00
2023-05-25T16:00:52.440Z,44.20
2023-05-25T16:03:20.659Z,44.50
2023-05-25T16:05:52.448Z,44.70
2023-05-25T16:08:20.648Z,44.60
2023-05-25T16:10:49.017Z,45.00
2023-05-25T16:13:17.242Z,44.70
2023-05-25T16:15:46.599Z,45.00
2023-05-25T16:18:16.684Z,45.10
2023-05-25T16:20:44.955Z,45.30
2023-05-25T16:23:14.823Z,45.80
2023-05-25T16:25:45.657Z,40.80
2023-05-25T16:28:14.047Z,41.50
2023-05-25T16:30:42.225Z,42.30
2023-05-25T16:33:10.538Z,40.60
2023-05-25T16:35:38.762Z,37.20
2023-05-25T16:38:07.052Z,35.30
2023-05-25T16:40:37.147Z,34.60
2023-05-25T16:43:05.500Z,33.70
2023-05-25T16:45:33.653Z,32.80
2023-05-25T16:48:01.857Z,32.70
2023-05-25T16:50:30.123Z,34.70
2023-05-25T16:52:58.310Z,34.10
2023-05-25T16:55:26.847Z,33.40
2023-05-25T16:57:56.355Z,34.20
2023-05-25T17:00:24.866Z,34.10
2023-05-25T17:02:53.099Z,33.40
2023-05-25T17:05:21.448Z,33.10
2023-05-25T17:07:49.717Z,35.10
2023-05-25T17:10:17.935Z,36.50
2023-05-25T17:12:46.092Z,37.30
2023-05-25T17:15:16.309Z,37.90
2023-05-25T17:17:45.158Z,38.70
2023-05-25T17:20:13.385Z,39.50
2023-05-25T17:22:42.037Z,40.20
2023-05-25T17:25:10.812Z,40.70
2023-05-25T17:27:38.981Z,41.10
2023-05-25T17:30:08.624Z,41.50
2023-05-25T17:32:39.137Z,41.90
2023-05-25T17:35:07.798Z,42.20
2023-05-25T17:37:36.241Z,42.60
2023-05-25T17:40:04.988Z,42.80
2023-05-25T17:42:33.256Z,42.90
2023-05-25T17:45:01.557Z,43.30
2023-05-25T17:47:30.634Z,43.70
2023-05-25T17:50:00.385Z,44.00
2023-05-25T17:52:29.449Z,44.30
2023-05-25T17:54:57.576Z,44.40
2023-05-25T17:57:25.903Z,44.60
2023-05-25T17:59:54.047Z,44.80
2023-05-25T18:02:22.377Z,45.00
2023-05-25T18:04:50.719Z,45.10
2023-05-25T18:07:21.052Z,45.20
2023-05-25T18:09:49.316Z,45.40
2023-05-25T18:12:17.493Z,45.70
2023-05-25T18:14:45.708Z,45.90
2023-05-25T18:17:14.152Z,46.10
2023-05-25T18:19:44.280Z,46.30
2023-05-25T18:22:15.679Z,46.50
2023-05-25T18:24:45.377Z,46.60
2023-05-25T18:27:13.671Z,46.80
2023-05-25T18:29:41.818Z,47.00
2023-05-25T18:32:10.040Z,47.10
2023-05-25T18:34:38.170Z,47.30
2023-05-25T18:37:06.705Z,47.50
2023-05-25T18:39:34.982Z,47.70
2023-05-25T18:42:04.705Z,47.80
2023-05-25T18:44:32.952Z,48.00
2023-05-25T18:47:01.274Z,48.10
2023-05-25T18:49:32.934Z,48.30
2023-05-25T18:52:01.597Z,48.40
2023-05-25T18:54:29.874Z,48.70
2023-05-25T18:56:58.096Z,48.90
2023-05-25T18:59:27.928Z,49.10
2023-05-25T19:01:56.170Z,49.50
2023-05-25T19:04:24.442Z,50.10
2023-05-25T19:06:52.761Z,50.80
2023-05-25T19:09:21.170Z,51.60
2023-05-25T19:11:49.460Z,52.20
2023-05-25T19:14:17.726Z,52.80
2023-05-25T19:16:48.971Z,53.50
2023-05-25T19:19:17.498Z,54.10
2023-05-25T19:21:45.778Z,54.50
2023-05-25T19:24:14.032Z,54.80
2023-05-25T19:26:42.236Z,55.00
2023-05-25T19:29:10.459Z,55.40
2023-05-25T19:31:38.716Z,55.50
2023-05-25T19:34:08.377Z,55.60
2023-05-25T19:36:36.795Z,55.90
2023-05-25T19:39:06.306Z,56.30
2023-05-25T19:41:35.946Z,56.60
2023-05-25T19:44:04.144Z,57.00
2023-05-25T19:46:32.510Z,57.40
2023-05-25T19:49:01.161Z,57.80
2023-05-25T19:51:31.229Z,58.30
2023-05-25T19:53:59.414Z,58.70
2023-05-25T19:56:27.693Z,59.10
2023-05-25T19:58:55.889Z,59.40
2023-05-25T20:01:24.383Z,59.60
2023-05-25T20:03:52.690Z,59.90
2023-05-25T20:06:21.456Z,60.20
2023-05-25T20:08:51.054Z,60.50
2023-05-25T20:11:21.205Z,60.80
2023-05-25T20:13:49.879Z,61.00
2023-05-25T20:16:18.216Z,61.10
2023-05-25T20:18:46.632Z,61.20
2023-05-25T20:21:14.795Z,61.30
2023-05-25T20:23:43.036Z,61.40
2023-05-25T20:26:13.447Z,61.60
2023-05-25T20:28:41.642Z,61.80
2023-05-25T20:31:10.200Z,61.90
2023-05-25T20:33:38.406Z,62.00
2023-05-25T20:36:07.108Z,62.10
2023-05-25T20:38:35.439Z,62.20
2023-05-25T20:41:03.629Z,62.40
2023-05-25T20:43:33.262Z,62.30
2023-05-25T20:46:01.573Z,62.30
2023-05-25T20:48:29.868Z,62.30
2023-05-25T20:50:58.050Z,62.30
2023-05-25T20:53:26.320Z,62.40
2023-05-25T20:55:54.472Z,62.30
2023-05-25T20:58:22.688Z,62.40
2023-05-25T21:00:52.209Z,62.40
2023-05-25T21:03:20.570Z,62.40
2023-05-25T21:05:48.886Z,62.50
2023-05-25T21:08:17.100Z,62.60
2023-05-25T21:10:45.300Z,62.70
2023-05-25T21:13:13.971Z,62.80
2023-05-25T21:15:42.229Z,62.90
2023-05-25T21:18:11.883Z,63.00
2023-05-25T21:20:40.261Z,63.10
2023-05-25T21:23:08.604Z,63.10
2023-05-25T21:25:37.292Z,63.30
2023-05-25T21:28:06.925Z,63.70
2023-05-25T21:30:35.055Z,63.80
2023-05-25T21:33:03.352Z,64.10
2023-05-25T21:35:33.017Z,64.30
2023-05-25T21:38:01.188Z,64.60
2023-05-25T21:40:29.361Z,64.90
2023-05-25T21:42:57.641Z,65.00
2023-05-25T21:45:26.000Z,65.20
2023-05-25T21:47:54.239Z,65.20
2023-05-25T21:50:22.498Z,65.40
2023-05-25T21:52:52.017Z,65.50
2023-05-25T21:55:20.179Z,65.70
2023-05-25T21:57:48.425Z,65.80
2023-05-25T22:00:17.732Z,66.10
2023-05-25T22:02:46.036Z,66.30
2023-05-25T22:05:15.786Z,66.50
2023-05-25T22:07:44.297Z,66.60
2023-05-25T22:10:14.093Z,66.80
2023-05-25T22:12:42.261Z,67.00
2023-05-25T22:15:11.150Z,67.10
2023-05-25T22:17:39.473Z,67.40
2023-05-25T22:20:08.819Z,67.50
2023-05-25T22:22:37.698Z,67.70
2023-05-25T22:25:06.586Z,67.80
2023-05-25T22:27:36.212Z,68.00
2023-05-25T22:30:04.607Z,68.10
2023-05-25T22:32:32.896Z,68.30
2023-05-25T22:35:01.196Z,68.40
2023-05-25T22:37:29.413Z,68.70
2023-05-25T22:39:57.972Z,69.00
2023-05-25T22:42:26.158Z,69.10
2023-05-25T22:44:55.701Z,69.10
2023-05-25T22:47:23.971Z,69.10
2023-05-25T22:49:52.120Z,69.10
2023-05-25T22:52:20.469Z,69.10
2023-05-25T22:54:48.707Z,69.20
2023-05-25T22:57:17.037Z,69.30
2023-05-25T22:59:45.211Z,69.40
2023-05-25T23:02:14.794Z,69.50
2023-05-25T23:04:43.072Z,69.50
2023-05-25T23:07:11.260Z,69.60
2023-05-25T23:09:39.432Z,69.60
2023-05-25T23:12:07.812Z,69.60
2023-05-25T23:14:36.846Z,69.80
2023-05-25T23:17:05.168Z,70.00
2023-05-25T23:19:35.814Z,70.10
2023-05-25T23:22:04.136Z,70.30
2023-05-25T23:24:32.295Z,70.30
2023-05-25T23:27:00.838Z,70.50
2023-05-25T23:29:29.251Z,70.60
2023-05-25T23:31:57.531Z,70.70
2023-05-25T23:34:25.721Z,70.80
2023-05-25T23:36:55.258Z,71.10
2023-05-25T23:39:24.234Z,71.10
2023-05-25T23:41:56.610Z,71.30
2023-05-25T23:44:25.973Z,71.20
2023-05-25T23:46:56.804Z,71.50
2023-05-25T23:49:27.155Z,71.70
2023-05-25T23:51:57.721Z,71.80
2023-05-25T23:54:26.937Z,71.90
2023-05-25T23:57:05.158Z,72.00
2023-05-25T23:59:34.291Z,72.20
